createdAt,value
2022-12-22T00:01:32.191Z,99970.41
2022-12-22T00:06:07.109Z,99965.50
2022-12-22T00:10:41.618Z,99965.34
2022-12-22T00:15:17.052Z,99969.16
2022-12-22T00:19:51.634Z,99963.19
2022-12-22T00:24:27.061Z,99958.78
2022-12-22T00:29:02.487Z,99958.97
2022-12-22T00:33:38.924Z,99947.44
2022-12-22T00:38:13.617Z,99953.97
2022-12-22T00:42:48.445Z,99946.78
2022-12-22T00:47:23.328Z,99946.94
2022-12-22T00:51:58.160Z,99957.22
2022-12-22T00:56:33.141Z,99955.47
2022-12-22T01:01:07.835Z,99953.50
2022-12-22T01:05:42.666Z,99951.66
2022-12-22T01:10:17.354Z,99947.00
2022-12-22T01:14:51.859Z,99956.59
2022-12-22T01:19:26.607Z,99961.75
2022-12-22T01:24:01.837Z,99960.22
2022-12-22T01:28:36.562Z,99956.72
2022-12-22T01:33:11.486Z,99950.91
2022-12-22T01:37:46.658Z,99957.13
2022-12-22T01:42:21.531Z,99945.56
2022-12-22T01:47:05.488Z,99945.81
2022-12-22T01:51:47.216Z,99926.97
2022-12-22T01:56:22.404Z,99911.94
2022-12-22T02:00:58.155Z,99916.28
2022-12-22T02:05:34.608Z,99904.78
2022-12-22T02:10:31.962Z,99905.16
2022-12-22T02:15:42.581Z,99888.75
2022-12-22T02:20:58.716Z,99894.28
2022-12-22T02:25:37.841Z,99888.25
2022-12-22T02:30:19.235Z,99898.31
2022-12-22T02:34:53.807Z,99888.75
2022-12-22T02:39:46.477Z,99887.16
2022-12-22T02:44:40.399Z,99880.66
2022-12-22T02:49:17.804Z,99876.66
2022-12-22T02:53:53.498Z,99869.28
2022-12-22T02:58:29.951Z,99860.91
2022-12-22T03:03:04.787Z,99857.91
2022-12-22T03:07:39.618Z,99859.31
2022-12-22T03:12:14.517Z,99867.81
2022-12-22T03:16:49.918Z,99859.97
2022-12-22T03:21:24.690Z,99862.13
2022-12-22T03:25:56.274Z,99857.69
2022-12-22T03:30:12.660Z,99853.53
2022-12-22T03:34:28.822Z,99855.00
2022-12-22T03:38:44.907Z,99844.22
2022-12-22T03:43:19.646Z,99856.16
2022-12-22T03:47:35.874Z,99853.41
2022-12-22T03:51:53.322Z,99854.72
2022-12-22T03:56:09.557Z,99839.16
2022-12-22T04:00:25.739Z,99845.94
2022-12-22T04:04:42.018Z,99855.00
2022-12-22T04:08:58.169Z,99848.78
2022-12-22T04:13:14.327Z,99859.53
2022-12-22T04:17:30.439Z,99853.53
2022-12-22T04:21:46.572Z,99839.19
2022-12-22T04:26:02.810Z,99840.84
2022-12-22T04:30:19.215Z,99831.50
2022-12-22T04:34:35.386Z,99825.19
2022-12-22T04:38:51.644Z,99832.56
2022-12-22T04:43:07.908Z,99837.75
2022-12-22T04:47:24.108Z,99833.63
2022-12-22T04:51:40.212Z,99831.06
2022-12-22T04:56:01.521Z,99843.41
2022-12-22T05:00:18.257Z,99843.56
2022-12-22T05:04:34.475Z,99836.47
2022-12-22T05:08:50.684Z,99844.28
2022-12-22T05:13:06.855Z,99847.56
2022-12-22T05:17:23.000Z,99858.44
2022-12-22T05:21:39.136Z,99854.19
2022-12-22T05:25:56.119Z,99838.72
2022-12-22T05:30:13.587Z,99848.78
2022-12-22T05:34:29.766Z,99833.06
2022-12-22T05:38:46.407Z,99834.34
2022-12-22T05:43:02.757Z,99834.37
2022-12-22T05:47:18.943Z,99833.63
2022-12-22T05:51:35.191Z,99843.19
2022-12-22T05:55:52.875Z,99825.09
2022-12-22T06:00:15.928Z,99814.22
2022-12-22T06:04:32.155Z,99820.72
2022-12-22T06:08:48.366Z,99823.88
2022-12-22T06:13:04.527Z,99821.62
2022-12-22T06:17:20.705Z,99822.41
2022-12-22T06:21:36.937Z,99825.59
2022-12-22T06:25:57.938Z,99839.88
2022-12-22T06:30:14.988Z,99828.75
2022-12-22T06:34:31.296Z,99837.09
2022-12-22T06:38:47.502Z,99863.16
2022-12-22T06:43:10.498Z,99868.56
2022-12-22T06:47:27.056Z,99869.75
2022-12-22T06:51:43.268Z,99878.03
2022-12-22T06:55:59.368Z,99869.72
2022-12-22T07:00:16.060Z,99860.41
2022-12-22T07:04:32.418Z,99858.84
2022-12-22T07:08:49.040Z,99871.31
2022-12-22T07:13:19.576Z,99864.00
2022-12-22T07:17:35.908Z,99871.13
2022-12-22T07:21:52.117Z,99866.63
2022-12-22T07:26:09.596Z,99866.88
2022-12-22T07:30:25.781Z,99865.78
2022-12-22T07:34:42.021Z,99865.25
2022-12-22T07:38:58.220Z,99862.78
2022-12-22T07:43:14.386Z,99853.12
2022-12-22T07:47:35.241Z,99847.41
2022-12-22T07:51:52.322Z,99847.91
2022-12-22T07:56:08.733Z,99845.69
2022-12-22T08:00:24.991Z,99842.66
2022-12-22T08:04:41.210Z,99842.19
2022-12-22T08:08:57.403Z,99830.06
2022-12-22T08:13:13.562Z,99827.72
2022-12-22T08:17:30.181Z,99827.81
2022-12-22T08:21:52.531Z,99812.34
2022-12-22T08:26:14.127Z,99816.91
2022-12-22T08:30:30.579Z,99815.97
2022-12-22T08:34:49.459Z,99808.94
2022-12-22T08:39:06.157Z,99816.56
2022-12-22T08:43:22.263Z,99819.16
2022-12-22T08:47:38.506Z,99823.84
2022-12-22T08:51:54.911Z,99829.50
2022-12-22T08:56:11.102Z,99828.56
2022-12-22T09:00:27.778Z,99810.84
2022-12-22T09:04:43.957Z,99821.41
2022-12-22T09:09:02.130Z,99822.69
2022-12-22T09:13:18.845Z,99816.91
2022-12-22T09:17:36.409Z,99815.63
2022-12-22T09:21:52.665Z,99809.00
2022-12-22T09:26:10.361Z,99799.25
2022-12-22T09:30:26.596Z,99793.38
2022-12-22T09:34:42.772Z,99810.72
2022-12-22T09:39:01.012Z,99802.63
2022-12-22T09:43:19.349Z,99794.47
2022-12-22T09:47:38.993Z,99798.25
2022-12-22T09:52:00.406Z,99800.00
2022-12-22T09:56:17.845Z,99788.72
2022-12-22T10:00:36.813Z,99768.53
2022-12-22T10:05:21.021Z,99769.66
2022-12-22T10:09:52.659Z,99775.16
2022-12-22T10:14:11.315Z,99768.94
2022-12-22T10:18:29.587Z,99760.38
2022-12-22T10:22:55.647Z,99738.34
2022-12-22T10:27:11.962Z,99740.34
2022-12-22T10:31:34.136Z,99741.47
2022-12-22T10:36:00.332Z,99729.25
2022-12-22T10:40:17.594Z,99725.38
2022-12-22T10:44:35.280Z,99727.47
2022-12-22T10:48:51.404Z,99730.09
2022-12-22T10:53:07.531Z,99722.84
2022-12-22T10:57:28.937Z,99708.25
2022-12-22T11:01:47.204Z,99706.13
2022-12-22T11:06:13.437Z,99702.69
2022-12-22T11:10:48.903Z,99702.97
2022-12-22T11:15:49.331Z,99699.69
2022-12-22T11:20:31.409Z,99698.78
2022-12-22T11:24:53.502Z,99710.22
2022-12-22T11:29:29.425Z,99703.22
2022-12-22T11:34:21.273Z,99700.19
2022-12-22T11:39:01.851Z,99705.19
2022-12-22T11:43:30.338Z,99708.75
2022-12-22T11:47:57.712Z,99704.94
2022-12-22T11:52:25.009Z,99710.56
2022-12-22T11:56:47.732Z,99695.47
2022-12-22T12:01:28.606Z,99695.59
2022-12-22T12:06:03.445Z,99712.72
2022-12-22T12:10:29.428Z,99721.41
2022-12-22T12:15:02.412Z,99741.16
2022-12-22T12:19:28.719Z,99760.94
2022-12-22T12:24:00.205Z,99772.34
2022-12-22T12:28:42.969Z,99766.97
2022-12-22T12:33:09.470Z,99763.47
2022-12-22T12:37:37.959Z,99761.19
2022-12-22T12:42:06.365Z,99749.91
2022-12-22T12:46:41.253Z,99736.81
2022-12-22T12:51:00.489Z,99671.75
2022-12-22T12:55:32.554Z,99668.53
2022-12-22T12:59:50.344Z,99660.34
2022-12-22T13:04:28.479Z,99660.72
2022-12-22T13:09:39.659Z,99666.28
2022-12-22T13:13:40.697Z,99635.37
2022-12-22T13:17:57.288Z,99630.97
2022-12-22T13:22:13.632Z,99615.22
2022-12-22T13:26:38.245Z,99610.84
2022-12-22T13:31:02.875Z,99622.13
2022-12-22T13:35:44.781Z,99622.59
2022-12-22T13:40:18.419Z,99608.75
2022-12-22T13:44:35.584Z,99609.38
2022-12-22T13:48:54.372Z,99605.31
2022-12-22T13:53:13.029Z,99609.22
2022-12-22T13:57:39.577Z,99620.44
2022-12-22T14:02:01.542Z,99614.81
2022-12-22T14:06:38.719Z,99617.34
2022-12-22T14:10:55.666Z,99622.63
2022-12-22T14:15:20.176Z,99651.28
2022-12-22T14:19:38.278Z,99638.75
2022-12-22T14:23:54.410Z,99624.75
2022-12-22T14:28:22.624Z,99643.63
2022-12-22T14:32:41.661Z,99631.25
2022-12-22T14:36:58.883Z,99641.53
2022-12-22T14:41:42.249Z,99636.44
2022-12-22T14:46:09.109Z,99630.31
2022-12-22T14:50:29.622Z,99629.19
2022-12-22T14:54:48.608Z,99629.13
2022-12-22T14:59:22.203Z,99622.31
2022-12-22T15:03:40.440Z,99610.00
2022-12-22T15:08:07.959Z,99602.81
2022-12-22T15:12:26.147Z,99603.66
2022-12-22T15:16:42.965Z,99595.09
2022-12-22T15:20:59.316Z,99570.38
2022-12-22T15:25:22.755Z,99575.94
2022-12-22T15:29:39.031Z,99591.44
2022-12-22T15:33:55.892Z,99588.13
2022-12-22T15:38:18.694Z,99589.41
2022-12-22T15:42:34.876Z,99575.69
2022-12-22T15:46:56.730Z,99589.78
2022-12-22T15:51:20.974Z,99596.94
2022-12-22T15:55:42.624Z,99599.88
2022-12-22T15:59:58.988Z,99627.13
2022-12-22T16:04:15.296Z,99637.47
2022-12-22T16:08:37.164Z,99634.06
2022-12-22T16:13:00.215Z,99626.44
2022-12-22T16:17:24.424Z,99621.56
2022-12-22T16:21:41.363Z,99607.94
2022-12-22T16:26:01.924Z,99611.84
2022-12-22T16:30:21.672Z,99613.63
2022-12-22T16:34:37.794Z,99616.62
2022-12-22T16:38:53.973Z,99631.19
2022-12-22T16:48:09.347Z,99635.34
2022-12-22T16:52:39.193Z,99623.31
2022-12-22T16:56:55.440Z,99631.41
2022-12-22T17:01:27.753Z,99630.28
2022-12-22T17:05:48.415Z,99635.31
2022-12-22T17:10:04.966Z,99644.28
2022-12-22T17:14:29.756Z,99643.47
2022-12-22T17:18:46.108Z,99632.19
2022-12-22T17:23:03.263Z,99636.41
2022-12-22T17:27:25.909Z,99632.88
2022-12-22T17:31:42.246Z,99636.00
2022-12-22T17:35:59.077Z,99635.72
2022-12-22T17:40:31.104Z,99630.19
2022-12-22T17:44:47.967Z,99623.81
2022-12-22T17:49:04.164Z,99607.91
2022-12-22T17:53:21.411Z,99578.09
2022-12-22T17:57:37.577Z,99583.75
2022-12-22T18:01:53.973Z,99575.91
2022-12-22T18:06:15.897Z,99613.13
2022-12-22T18:10:38.043Z,99619.78
2022-12-22T18:14:54.339Z,99627.47
2022-12-22T18:19:10.639Z,99625.13
2022-12-22T18:23:32.641Z,99616.00
2022-12-22T18:27:49.736Z,99611.28
2022-12-22T18:32:06.176Z,99607.47
2022-12-22T18:36:31.259Z,99608.66
2022-12-22T18:40:48.247Z,99599.25
2022-12-22T18:45:04.699Z,99604.84
2022-12-22T18:49:20.943Z,99605.63
2022-12-22T18:53:37.151Z,99595.75
2022-12-22T18:57:54.374Z,99598.09
2022-12-22T19:02:26.423Z,99582.09
2022-12-22T19:06:46.697Z,99565.47
2022-12-22T19:11:07.022Z,99560.06
2022-12-22T19:15:30.709Z,99540.56
2022-12-22T19:19:46.965Z,99539.81
2022-12-22T19:24:03.132Z,99535.47
2022-12-22T19:28:45.457Z,99522.31
2022-12-22T19:33:03.822Z,99515.88
2022-12-22T19:37:20.471Z,99528.09
2022-12-22T19:41:39.642Z,99514.00
2022-12-22T19:45:56.072Z,99531.53
2022-12-22T19:50:19.859Z,99515.19
2022-12-22T19:54:36.573Z,99508.50
2022-12-22T19:58:53.309Z,99507.19
2022-12-22T20:03:12.655Z,99500.03
2022-12-22T20:07:30.157Z,99495.59
2022-12-22T20:11:46.510Z,99510.41
2022-12-22T20:16:04.311Z,99509.97
2022-12-22T20:20:23.945Z,99490.66
2022-12-22T20:24:40.096Z,99498.28
2022-12-22T20:28:56.335Z,99494.34
2022-12-22T20:33:13.039Z,99493.19
2022-12-22T20:37:29.897Z,99500.84
2022-12-22T20:41:52.587Z,99488.88
2022-12-22T20:46:21.411Z,99492.97
2022-12-22T20:50:37.639Z,99490.81
2022-12-22T20:54:53.918Z,99504.34
2022-12-22T20:59:22.421Z,99517.78
2022-12-22T21:03:38.604Z,99526.88
2022-12-22T21:07:54.836Z,99524.09
2022-12-22T21:12:11.056Z,99526.69
2022-12-22T21:16:29.046Z,99531.66
2022-12-22T21:20:45.991Z,99523.19
2022-12-22T21:25:02.200Z,99528.03
2022-12-22T21:29:23.970Z,99538.28
2022-12-22T21:33:40.129Z,99542.38
2022-12-22T21:37:58.074Z,99549.84
2022-12-22T21:42:18.408Z,99538.19
2022-12-22T21:46:34.690Z,99541.16
2022-12-22T21:50:50.980Z,99535.56
2022-12-22T21:55:07.611Z,99518.53
2022-12-22T21:59:23.829Z,99526.69
2022-12-22T22:03:39.991Z,99518.22
2022-12-22T22:07:57.333Z,99510.00
2022-12-22T22:12:32.137Z,99506.97
2022-12-22T22:16:48.516Z,99503.94
2022-12-22T22:21:07.111Z,99514.44
2022-12-22T22:25:23.928Z,99500.69
2022-12-22T22:29:40.644Z,99506.41
2022-12-22T22:33:56.915Z,99495.59
2022-12-22T22:38:15.006Z,99483.78
2022-12-22T22:42:31.194Z,99476.59
2022-12-22T22:46:47.402Z,99481.47
2022-12-22T22:51:03.699Z,99482.56
2022-12-22T22:55:19.924Z,99490.37
2022-12-22T22:59:36.227Z,99485.25
2022-12-22T23:03:52.569Z,99484.84
2022-12-22T23:08:08.889Z,99485.84
2022-12-22T23:12:25.121Z,99472.88
2022-12-22T23:16:41.496Z,99470.19
2022-12-22T23:21:02.300Z,99489.13
2022-12-22T23:25:18.508Z,99502.47
2022-12-22T23:29:35.880Z,99493.28
2022-12-22T23:33:52.126Z,99491.78
2022-12-22T23:38:09.072Z,99485.03
2022-12-22T23:42:25.250Z,99484.63
2022-12-22T23:46:41.827Z,99465.25
2022-12-22T23:50:58.073Z,99464.44
2022-12-22T23:55:15.382Z,99465.69
2022-12-22T23:59:31.758Z,99464.12
